createdAt,value
2023-07-03T00:02:27.638Z,27.50
2023-07-03T00:05:31.452Z,27.40
2023-07-03T00:08:34.551Z,27.50
2023-07-03T00:11:37.064Z,27.40
2023-07-03T00:14:40.154Z,27.70
2023-07-03T00:17:45.794Z,27.90
2023-07-03T00:20:47.929Z,27.90
2023-07-03T00:23:50.340Z,27.80
2023-07-03T00:26:52.271Z,27.80
2023-07-03T00:29:54.623Z,27.70
2023-07-03T00:32:56.830Z,27.70
2023-07-03T00:35:59.072Z,27.80
2023-07-03T00:39:01.212Z,27.50
2023-07-03T00:42:04.078Z,27.50
2023-07-03T00:45:10.066Z,27.30
2023-07-03T00:48:12.358Z,27.20
2023-07-03T00:51:15.936Z,27.00
2023-07-03T00:54:18.339Z,26.90
2023-07-03T00:57:24.463Z,27.00
2023-07-03T01:00:40.838Z,26.90
2023-07-03T01:04:01.363Z,27.00
2023-07-03T01:07:13.200Z,27.10
2023-07-03T01:10:20.165Z,27.00
2023-07-03T01:13:25.702Z,27.10
2023-07-03T01:16:31.571Z,27.40
2023-07-03T01:19:34.727Z,27.20
2023-07-03T01:22:43.681Z,27.30
2023-07-03T01:25:47.850Z,27.20
2023-07-03T01:28:55.709Z,26.90
2023-07-03T01:31:59.307Z,27.00
2023-07-03T01:35:04.409Z,27.00
2023-07-03T01:38:07.921Z,27.20
2023-07-03T01:41:12.457Z,26.70
2023-07-03T01:44:14.722Z,26.80
2023-07-03T01:47:17.248Z,27.10
2023-07-03T01:50:24.592Z,27.00
2023-07-03T01:53:33.322Z,27.00
2023-07-03T01:56:41.100Z,27.00
2023-07-03T01:59:44.101Z,27.00
2023-07-03T02:02:49.845Z,27.30
2023-07-03T02:05:56.818Z,27.20
2023-07-03T02:08:59.586Z,27.50
2023-07-03T02:12:01.715Z,27.80
2023-07-03T02:15:05.435Z,27.70
2023-07-03T02:18:08.376Z,27.80
2023-07-03T02:21:11.022Z,27.80
2023-07-03T02:24:14.169Z,28.10
2023-07-03T02:27:16.509Z,27.60
2023-07-03T02:30:18.507Z,27.50
2023-07-03T02:33:20.788Z,27.60
2023-07-03T02:36:30.139Z,27.70
2023-07-03T02:39:32.779Z,27.60
2023-07-03T02:42:34.708Z,27.70
2023-07-03T02:45:42.809Z,27.70
2023-07-03T02:48:45.200Z,27.60
2023-07-03T02:51:47.466Z,27.60
2023-07-03T02:54:49.795Z,27.70
2023-07-03T02:57:52.358Z,27.40
2023-07-03T03:00:55.753Z,27.80
2023-07-03T03:03:59.754Z,27.80
2023-07-03T03:07:01.921Z,27.30
2023-07-03T03:10:04.742Z,27.50
2023-07-03T03:13:06.986Z,27.30
2023-07-03T03:16:09.448Z,27.30
2023-07-03T03:19:11.681Z,26.90
2023-07-03T03:22:13.950Z,26.30
2023-07-03T03:25:16.379Z,26.10
2023-07-03T03:28:18.704Z,25.60
2023-07-03T03:31:20.688Z,25.50
2023-07-03T03:34:22.952Z,26.00
2023-07-03T03:37:24.931Z,26.50
2023-07-03T03:40:27.395Z,25.70
2023-07-03T03:43:29.417Z,26.10
2023-07-03T03:46:31.714Z,26.20
2023-07-03T03:49:33.889Z,26.80
2023-07-03T03:52:36.241Z,26.20
2023-07-03T03:55:38.233Z,26.10
2023-07-03T03:58:40.498Z,26.20
2023-07-03T04:01:44.208Z,26.20
2023-07-03T04:04:46.621Z,26.30
2023-07-03T04:07:48.599Z,26.40
2023-07-03T04:10:50.846Z,26.20
2023-07-03T04:13:53.044Z,25.70
2023-07-03T04:16:58.636Z,25.90
2023-07-03T04:20:00.790Z,26.00
2023-07-03T04:23:03.058Z,26.00
2023-07-03T04:26:05.146Z,25.40
2023-07-03T04:29:07.406Z,25.60
2023-07-03T04:32:10.287Z,25.20
2023-07-03T04:35:12.620Z,25.70
2023-07-03T04:38:18.780Z,25.70
2023-07-03T04:41:23.535Z,26.10
2023-07-03T04:44:25.554Z,25.90
2023-07-03T04:47:28.112Z,25.90
2023-07-03T04:50:30.420Z,25.90
2023-07-03T04:53:41.372Z,26.10
2023-07-03T04:56:45.911Z,25.50
2023-07-03T04:59:49.833Z,25.60
2023-07-03T05:02:54.611Z,25.30
2023-07-03T05:05:56.932Z,24.80
2023-07-03T05:08:59.003Z,24.30
2023-07-03T05:12:01.279Z,23.80
2023-07-03T05:15:04.981Z,23.10
2023-07-03T05:18:07.312Z,22.20
2023-07-03T05:21:09.458Z,21.80
2023-07-03T05:24:11.728Z,21.50
2023-07-03T05:27:13.741Z,21.00
2023-07-03T05:30:16.493Z,21.20
2023-07-03T05:33:18.462Z,21.10
2023-07-03T05:36:20.762Z,20.20
2023-07-03T05:39:22.998Z,20.40
2023-07-03T05:42:25.352Z,20.30
2023-07-03T05:45:27.342Z,20.20
2023-07-03T05:48:29.634Z,20.30
2023-07-03T05:51:31.576Z,20.20
2023-07-03T05:54:33.942Z,20.30
2023-07-03T05:57:35.918Z,20.10
2023-07-03T06:00:38.397Z,20.10
2023-07-03T06:03:43.939Z,20.50
2023-07-03T06:06:46.272Z,20.00
2023-07-03T06:09:48.290Z,19.80
2023-07-03T06:12:50.527Z,19.70
2023-07-03T06:15:52.742Z,19.50
2023-07-03T06:18:55.825Z,19.90
2023-07-03T06:21:58.409Z,20.30
2023-07-03T06:25:00.616Z,20.60
2023-07-03T06:28:02.673Z,20.90
2023-07-03T06:31:04.954Z,21.60
2023-07-03T06:34:07.047Z,22.10
2023-07-03T06:37:09.459Z,22.20
2023-07-03T06:40:12.731Z,22.60
2023-07-03T06:43:15.260Z,23.30
2023-07-03T06:46:17.524Z,23.60
2023-07-03T06:49:21.421Z,23.60
2023-07-03T06:52:23.457Z,24.10
2023-07-03T06:55:25.859Z,24.40
2023-07-03T06:58:28.808Z,24.40
2023-07-03T07:01:31.460Z,24.70
2023-07-03T07:04:34.262Z,24.60
2023-07-03T07:07:36.788Z,25.00
2023-07-03T07:10:41.255Z,25.10
2023-07-03T07:13:46.001Z,25.50
2023-07-03T07:16:48.032Z,25.50
2023-07-03T07:19:50.821Z,25.30
2023-07-03T07:22:52.808Z,25.50
2023-07-03T07:25:58.531Z,25.50
2023-07-03T07:29:01.697Z,25.50
2023-07-03T07:32:04.206Z,25.80
2023-07-03T07:35:09.000Z,25.60
2023-07-03T07:38:14.485Z,25.90
2023-07-03T07:41:16.515Z,26.20
2023-07-03T07:44:19.562Z,25.50
2023-07-03T07:47:21.666Z,24.90
2023-07-03T07:50:24.432Z,24.90
2023-07-03T07:53:27.338Z,24.80
2023-07-03T07:56:31.644Z,25.00
2023-07-03T07:59:36.278Z,24.80
2023-07-03T08:02:38.691Z,24.20
2023-07-03T08:05:40.762Z,24.20
2023-07-03T08:08:44.026Z,23.30
2023-07-03T08:11:46.127Z,23.10
2023-07-03T08:14:48.412Z,23.30
2023-07-03T08:17:50.488Z,24.40
2023-07-03T08:20:53.314Z,23.80
2023-07-03T08:23:55.379Z,23.10
2023-07-03T08:26:57.678Z,22.80
2023-07-03T08:29:59.819Z,22.60
2023-07-03T08:33:02.097Z,23.20
2023-07-03T08:39:11.009Z,22.80
2023-07-03T08:42:35.392Z,22.30
2023-07-03T08:45:46.835Z,22.40
2023-07-03T08:48:52.562Z,22.20
2023-07-03T08:51:59.181Z,22.10
2023-07-03T08:55:02.792Z,21.80
2023-07-03T08:58:05.130Z,21.80
2023-07-03T09:01:25.162Z,21.70
2023-07-03T09:04:46.363Z,21.90
2023-07-03T09:07:55.947Z,22.20
2023-07-03T09:10:59.062Z,22.80
2023-07-03T09:14:03.323Z,23.50
2023-07-03T09:17:10.422Z,24.20
2023-07-03T09:20:15.829Z,23.40
2023-07-03T09:23:22.540Z,23.60
2023-07-03T09:26:36.898Z,23.50
2023-07-03T09:29:40.229Z,24.00
2023-07-03T09:32:42.249Z,24.60
2023-07-03T09:35:44.588Z,24.60
2023-07-03T09:38:46.885Z,24.60
2023-07-03T09:41:49.290Z,24.70
2023-07-03T09:44:51.387Z,24.70
2023-07-03T09:47:59.659Z,24.30
2023-07-03T09:51:21.528Z,25.10
2023-07-03T09:54:29.032Z,25.20
2023-07-03T09:57:31.153Z,24.40
2023-07-03T10:00:33.507Z,24.00
2023-07-03T10:03:36.872Z,24.00
2023-07-03T10:06:40.945Z,24.30
2023-07-03T10:13:02.327Z,26.50
2023-07-03T10:16:05.474Z,26.10
2023-07-03T10:19:10.553Z,25.30
2023-07-03T10:22:13.913Z,24.50
2023-07-03T10:25:21.313Z,24.10
2023-07-03T10:28:29.952Z,23.70
2023-07-03T10:31:49.072Z,23.40
2023-07-03T10:35:15.913Z,23.90
2023-07-03T10:38:42.292Z,23.80
2023-07-03T10:41:54.755Z,23.90
2023-07-03T10:45:26.680Z,23.50
2023-07-03T10:48:34.319Z,23.70
2023-07-03T10:52:03.246Z,23.30
2023-07-03T10:55:23.766Z,23.30
2023-07-03T10:58:45.176Z,23.20
2023-07-03T11:02:16.356Z,23.50
2023-07-03T11:05:22.634Z,23.50
2023-07-03T11:08:45.471Z,23.80
2023-07-03T11:12:18.185Z,23.90
2023-07-03T11:15:43.833Z,24.30
2023-07-03T11:25:36.008Z,23.50
2023-07-03T11:28:45.084Z,23.90
2023-07-03T11:31:48.612Z,23.80
2023-07-03T11:44:39.009Z,23.60
2023-07-03T11:47:41.049Z,23.00
2023-07-03T11:50:43.339Z,22.60
2023-07-03T11:53:48.291Z,22.70
2023-07-03T11:56:54.097Z,22.10
2023-07-03T12:00:15.212Z,22.00
2023-07-03T12:03:57.258Z,21.60
2023-07-03T12:06:59.379Z,21.40
2023-07-03T12:10:19.697Z,21.80
2023-07-03T12:13:33.456Z,22.10
2023-07-03T12:16:48.517Z,21.90
2023-07-03T12:19:56.174Z,22.10
2023-07-03T12:22:58.433Z,22.60
2023-07-03T12:26:06.565Z,22.90
2023-07-03T12:29:08.883Z,22.00
2023-07-03T12:32:11.036Z,22.30
2023-07-03T12:35:23.670Z,21.90
2023-07-03T12:38:25.742Z,21.40
2023-07-03T12:41:32.690Z,22.50
2023-07-03T12:44:35.067Z,22.70
2023-07-03T12:47:37.476Z,22.70
2023-07-03T12:50:49.942Z,21.20
2023-07-03T12:53:53.378Z,20.90
2023-07-03T12:56:55.533Z,21.20
2023-07-03T12:59:59.157Z,23.60
2023-07-03T13:03:03.202Z,23.30
2023-07-03T13:06:15.619Z,23.70
2023-07-03T13:09:17.773Z,23.10
2023-07-03T13:12:23.202Z,22.60
2023-07-03T13:15:54.898Z,23.10
2023-07-03T13:19:04.648Z,23.20
2023-07-03T13:22:14.660Z,22.30
2023-07-03T13:25:26.787Z,21.90
2023-07-03T13:28:33.827Z,21.40
2023-07-03T13:31:50.685Z,21.60
2023-07-03T13:35:01.607Z,21.20
2023-07-03T13:38:32.001Z,20.90
2023-07-03T13:41:34.506Z,21.00
2023-07-03T13:44:36.787Z,20.70
2023-07-03T13:47:38.897Z,21.10
2023-07-03T13:50:41.288Z,21.10
2023-07-03T13:53:43.349Z,20.50
2023-07-03T13:56:46.426Z,20.90
2023-07-03T13:59:48.381Z,20.30
2023-07-03T14:02:50.862Z,20.30
2023-07-03T14:05:54.555Z,20.50
2023-07-03T14:08:57.683Z,20.40
2023-07-03T14:11:59.686Z,20.20
2023-07-03T14:15:08.586Z,20.60
2023-07-03T14:18:10.770Z,20.20
2023-07-03T14:21:14.334Z,20.10
2023-07-03T14:24:16.466Z,19.90
2023-07-03T14:27:19.380Z,19.90
2023-07-03T14:30:21.541Z,20.40
2023-07-03T14:33:23.861Z,20.40
2023-07-03T14:36:26.002Z,20.50
2023-07-03T14:39:28.331Z,19.60
2023-07-03T14:42:33.753Z,19.60
2023-07-03T14:45:36.268Z,19.40
2023-07-03T14:48:38.443Z,19.50
2023-07-03T14:51:40.646Z,19.60
2023-07-03T14:54:43.290Z,19.30
2023-07-03T14:57:46.705Z,19.60
2023-07-03T15:00:49.121Z,19.70
2023-07-03T15:03:51.651Z,19.50
2023-07-03T15:06:53.977Z,19.90
2023-07-03T15:09:56.286Z,19.60
2023-07-03T15:13:01.931Z,19.60
2023-07-03T15:16:04.404Z,19.30
2023-07-03T15:19:08.785Z,19.50
2023-07-03T15:22:11.881Z,19.70
2023-07-03T15:25:13.851Z,19.90
2023-07-03T15:28:16.098Z,19.80
2023-07-03T15:31:18.252Z,19.80
2023-07-03T15:34:24.019Z,19.40
2023-07-03T15:37:26.019Z,19.70
2023-07-03T15:40:28.240Z,19.50
2023-07-03T15:43:32.431Z,20.00
2023-07-03T15:46:34.715Z,19.60
2023-07-03T15:49:37.498Z,19.80
2023-07-03T15:52:39.889Z,19.80
2023-07-03T15:55:41.973Z,20.10
2023-07-03T15:58:46.830Z,19.80
2023-07-03T16:01:50.693Z,20.10
2023-07-03T16:04:54.378Z,19.70
2023-07-03T16:07:56.948Z,19.90
2023-07-03T16:10:59.486Z,19.90
2023-07-03T16:14:03.382Z,20.10
2023-07-03T16:17:05.740Z,19.70
2023-07-03T16:20:11.030Z,19.60
2023-07-03T16:23:13.762Z,19.70
2023-07-03T16:26:15.732Z,19.70
2023-07-03T16:29:18.078Z,20.00
2023-07-03T16:32:19.984Z,19.80
2023-07-03T16:35:22.354Z,19.90
2023-07-03T16:38:24.391Z,20.30
2023-07-03T16:41:28.762Z,19.50
2023-07-03T16:44:30.979Z,19.60
2023-07-03T16:47:33.392Z,19.80
2023-07-03T16:50:35.481Z,20.00
2023-07-03T16:53:40.781Z,19.60
2023-07-03T16:56:42.820Z,19.60
2023-07-03T16:59:45.058Z,19.80
2023-07-03T17:02:47.097Z,19.90
2023-07-03T17:05:49.899Z,20.10
2023-07-03T17:08:52.142Z,20.50
2023-07-03T17:11:54.383Z,20.10
2023-07-03T17:14:56.379Z,20.10
2023-07-03T17:17:58.650Z,20.10
2023-07-03T17:21:00.879Z,20.30
2023-07-03T17:24:04.993Z,20.40
2023-07-03T17:27:07.053Z,20.30
2023-07-03T17:30:09.754Z,20.20
2023-07-03T17:33:11.730Z,20.10
2023-07-03T17:36:14.277Z,19.60
2023-07-03T17:39:16.361Z,19.90
2023-07-03T17:42:18.704Z,20.00
2023-07-03T17:45:20.673Z,20.00
2023-07-03T17:48:23.138Z,20.70
2023-07-03T17:51:27.564Z,20.20
2023-07-03T17:54:30.248Z,20.10
2023-07-03T17:57:32.562Z,20.30
2023-07-03T18:00:35.098Z,21.10
2023-07-03T18:03:37.248Z,20.60
2023-07-03T18:06:39.946Z,20.70
2023-07-03T18:09:43.577Z,20.80
2023-07-03T18:12:45.806Z,21.10
2023-07-03T18:15:49.553Z,20.80
2023-07-03T18:18:52.754Z,21.60
2023-07-03T18:21:54.731Z,21.30
2023-07-03T18:24:56.933Z,20.90
2023-07-03T18:27:58.892Z,21.40
2023-07-03T18:31:03.443Z,22.00
2023-07-03T18:34:05.592Z,21.80
2023-07-03T18:37:07.903Z,22.10
2023-07-03T18:40:10.437Z,22.80
2023-07-03T18:43:12.804Z,22.10
2023-07-03T18:46:16.814Z,22.70
2023-07-03T18:49:19.129Z,22.70
2023-07-03T18:52:21.456Z,22.70
2023-07-03T18:55:23.832Z,22.50
2023-07-03T18:58:25.847Z,23.90
2023-07-03T19:01:28.464Z,24.20
2023-07-03T19:04:30.627Z,23.80
2023-07-03T19:07:33.500Z,23.90
2023-07-03T19:10:35.732Z,24.40
2023-07-03T19:13:38.633Z,24.00
2023-07-03T19:16:40.753Z,23.70
2023-07-03T19:19:43.113Z,24.10
2023-07-03T19:22:45.237Z,24.00
2023-07-03T19:25:54.959Z,24.00
2023-07-03T19:28:57.018Z,24.30
2023-07-03T19:31:59.289Z,24.20
2023-07-03T19:35:01.223Z,24.10
2023-07-03T19:38:03.553Z,24.20
2023-07-03T19:41:05.701Z,24.90
2023-07-03T19:44:08.502Z,24.80
2023-07-03T19:47:10.798Z,24.60
2023-07-03T19:50:13.439Z,25.10
2023-07-03T19:53:15.682Z,25.50
2023-07-03T19:56:19.818Z,26.10
2023-07-03T19:59:21.847Z,26.70
2023-07-03T20:02:24.166Z,26.20
2023-07-03T20:05:26.535Z,25.70
2023-07-03T20:08:28.941Z,25.50
2023-07-03T20:11:30.994Z,25.10
2023-07-03T20:14:33.667Z,25.00
2023-07-03T20:17:40.182Z,24.80
2023-07-03T20:20:51.696Z,24.70
2023-07-03T20:23:55.638Z,24.70
2023-07-03T20:26:58.623Z,25.00
2023-07-03T20:30:00.602Z,25.00
2023-07-03T20:33:02.904Z,25.20
2023-07-03T20:36:10.066Z,25.20
2023-07-03T20:39:12.474Z,24.90
2023-07-03T20:42:15.121Z,25.00
2023-07-03T20:45:19.195Z,25.20
2023-07-03T20:48:25.590Z,25.30
2023-07-03T20:51:33.349Z,25.60
2023-07-03T20:54:38.547Z,25.30
2023-07-03T20:57:40.935Z,25.10
2023-07-03T21:00:43.308Z,25.20
2023-07-03T21:03:47.860Z,25.40
2023-07-03T21:06:50.438Z,25.40
2023-07-03T21:09:53.290Z,25.50
2023-07-03T21:12:55.470Z,25.30
2023-07-03T21:16:01.388Z,25.80
2023-07-03T21:19:04.044Z,25.70
2023-07-03T21:22:07.013Z,25.80
2023-07-03T21:25:09.232Z,25.80
2023-07-03T21:28:11.417Z,25.70
2023-07-03T21:31:15.562Z,25.70
2023-07-03T21:34:18.017Z,26.30
2023-07-03T21:37:21.616Z,27.00
2023-07-03T21:40:23.916Z,26.90
2023-07-03T21:43:26.167Z,26.70
2023-07-03T21:46:31.844Z,26.40
2023-07-03T21:49:34.057Z,25.90
2023-07-03T21:52:36.230Z,26.30
2023-07-03T21:55:38.266Z,26.70
2023-07-03T21:58:42.041Z,26.70
2023-07-03T22:01:51.302Z,26.90
2023-07-03T22:04:54.858Z,26.90
2023-07-03T22:07:56.930Z,27.00
2023-07-03T22:10:59.979Z,27.20
2023-07-03T22:14:03.692Z,27.20
2023-07-03T22:17:06.204Z,27.50
2023-07-03T22:20:09.862Z,27.70
2023-07-03T22:23:12.370Z,27.50
2023-07-03T22:26:14.450Z,27.60
2023-07-03T22:29:17.465Z,27.60
2023-07-03T22:32:19.472Z,27.60
2023-07-03T22:35:21.759Z,27.70
2023-07-03T22:38:23.946Z,28.20
2023-07-03T22:41:26.353Z,27.70
2023-07-03T22:44:28.314Z,27.70
2023-07-03T22:47:31.338Z,27.70
2023-07-03T22:50:34.253Z,27.90
2023-07-03T22:53:37.935Z,27.90
2023-07-03T22:56:39.958Z,28.70
2023-07-03T22:59:42.256Z,28.10
2023-07-03T23:02:45.604Z,28.20
2023-07-03T23:05:51.690Z,28.20
2023-07-03T23:08:53.900Z,28.30
2023-07-03T23:11:56.245Z,28.60
2023-07-03T23:14:58.257Z,28.40
2023-07-03T23:18:00.647Z,28.80
2023-07-03T23:21:07.848Z,28.70
2023-07-03T23:24:10.409Z,28.50
2023-07-03T23:27:12.900Z,28.40
2023-07-03T23:30:15.545Z,28.20
2023-07-03T23:33:17.503Z,28.20
2023-07-03T23:36:23.793Z,28.20
2023-07-03T23:39:27.376Z,28.20
2023-07-03T23:42:29.751Z,28.10
2023-07-03T23:45:33.530Z,28.00
2023-07-03T23:48:37.502Z,28.60
2023-07-03T23:51:39.590Z,28.10
2023-07-03T23:54:41.978Z,28.10
2023-07-03T23:57:44.834Z,28.20
